Time,TemperatureF,DewpointF,PressureIn,WindDirection,WindDirectionDegrees,WindSpeedMPH,WindSpeedGustMPH,Humidity,HourlyPrecipIn,Conditions,Clouds,dailyrainin,SoftwareType,DateUTC
2013-01-01 00:04:00,64.1,57.1,30.04,NW,315,6.0,6.3,78,0.00,,,0.00,WUHU216HW,2012-12-31 21:04:00,
2013-01-01 00:09:00,64.1,57.1,30.04,WNW,293,3.8,6.5,78,0.00,,,0.00,WUHU216HW,2012-12-31 21:09:00,
2013-01-01 00:14:00,64.1,57.4,30.04,NW,315,2.2,6.9,79,0.00,,,0.00,WUHU216HW,2012-12-31 21:14:00,
2013-01-01 00:19:00,64.1,57.4,30.04,WNW,293,4.5,6.9,79,0.00,,,0.00,WUHU216HW,2012-12-31 21:19:00,
2013-01-01 00:24:00,64.1,57.4,30.04,West,270,4.7,5.8,79,0.00,,,0.00,WUHU216HW,2012-12-31 21:24:00,
2013-01-01 00:29:00,64.1,57.4,30.04,WNW,293,3.1,5.8,79,0.00,,,0.00,WUHU216HW,2012-12-31 21:29:00,
2013-01-01 00:34:00,63.9,57.2,30.04,North,0,4.0,4.9,79,0.00,,,0.00,WUHU216HW,2012-12-31 21:34:00,
2013-01-01 00:39:00,63.7,57.4,30.04,NW,315,4.9,6.3,80,0.00,,,0.00,WUHU216HW,2012-12-31 21:39:00,
2013-01-01 00:44:00,63.7,57.1,30.04,WNW,293,4.9,6.3,79,0.00,,,0.00,WUHU216HW,2012-12-31 21:44:00,
2013-01-01 00:49:00,63.7,57.1,30.04,NW,315,4.0,6.3,79,0.00,,,0.00,WUHU216HW,2012-12-31 21:49:00,
2013-01-01 00:54:00,63.7,57.4,30.04,NW,315,4.7,6.3,80,0.00,,,0.00,WUHU216HW,2012-12-31 21:54:00,
2013-01-01 00:59:00,63.7,57.4,30.04,NW,315,4.0,5.1,80,0.00,,,0.00,WUHU216HW,2012-12-31 21:59:00,
2013-01-01 01:04:00,63.7,57.4,30.04,West,270,3.6,4.9,80,0.00,,,0.00,WUHU216HW,2012-12-31 22:04:00,
2013-01-01 01:09:00,63.7,57.4,30.04,WNW,293,4.0,4.5,80,0.00,,,0.00,WUHU216HW,2012-12-31 22:09:00,
2013-01-01 01:14:00,63.7,57.4,30.03,WNW,293,5.4,5.4,80,0.00,,,0.00,WUHU216HW,2012-12-31 22:14:00,
2013-01-01 01:19:00,63.7,57.4,30.03,WNW,293,4.7,5.4,80,0.00,,,0.00,WUHU216HW,2012-12-31 22:19:00,
2013-01-01 01:24:00,63.7,57.4,30.03,West,270,5.4,5.4,80,0.00,,,0.00,WUHU216HW,2012-12-31 22:24:00,
2013-01-01 01:29:00,63.7,57.8,30.03,West,270,5.6,5.6,81,0.00,,,0.00,WUHU216HW,2012-12-31 22:29:00,
2013-01-01 01:34:00,63.5,57.6,30.03,West,270,4.7,5.6,81,0.00,,,0.00,WUHU216HW,2012-12-31 22:34:00,
2013-01-01 01:39:00,63.5,57.6,30.03,WNW,293,5.6,6.3,81,0.00,,,0.00,WUHU216HW,2012-12-31 22:39:00,
2013-01-01 01:44:00,63.4,57.4,30.03,West,270,3.6,6.5,81,0.00,,,0.00,WUHU216HW,2012-12-31 22:44:00,
2013-01-01 01:49:00,63.4,57.8,30.03,NW,315,6.7,7.6,82,0.00,,,0.00,WUHU216HW,2012-12-31 22:49:00,
2013-01-01 01:54:00,63.5,58.2,30.02,WNW,293,4.5,7.6,83,0.00,,,0.00,WUHU216HW,2012-12-31 22:54:00,
2013-01-01 01:59:00,63.5,58.2,30.02,WNW,293,5.4,7.2,83,0.00,,,0.00,WUHU216HW,2012-12-31 22:59:00,
2013-01-01 02:04:00,63.4,58.1,30.02,WNW,293,4.7,7.2,83,0.00,,,0.00,WUHU216HW,2012-12-31 23:04:00,
2013-01-01 02:09:00,63.4,58.1,30.02,NW,315,5.4,6.0,83,0.00,,,0.00,WUHU216HW,2012-12-31 23:09:00,
2013-01-01 02:15:00,63.4,58.1,30.02,WNW,293,4.9,6.0,83,0.00,,,0.00,WUHU216HW,2012-12-31 23:15:00,
2013-01-01 02:20:00,63.4,58.1,30.02,West,270,4.0,6.0,83,0.00,,,0.00,WUHU216HW,2012-12-31 23:20:00,
2013-01-01 02:25:00,63.2,57.9,30.02,NW,315,4.3,5.6,83,0.00,,,0.00,WUHU216HW,2012-12-31 23:25:00,
2013-01-01 02:30:00,63.2,57.9,30.02,West,270,4.3,5.1,83,0.00,,,0.00,WUHU216HW,2012-12-31 23:30:00,
2013-01-01 02:35:00,63.2,57.9,30.02,WNW,293,4.7,6.7,83,0.00,,,0.00,WUHU216HW,2012-12-31 23:35:00,
2013-01-01 02:40:00,63.2,57.9,30.03,NW,315,5.4,6.7,83,0.00,,,0.00,WUHU216HW,2012-12-31 23:40:00,
2013-01-01 02:45:00,63.2,57.9,30.02,NW,315,5.6,6.5,83,0.00,,,0.00,WUHU216HW,2012-12-31 23:45:00,
2013-01-01 02:50:00,63.0,57.7,30.02,WNW,293,4.5,6.5,83,0.00,,,0.00,WUHU216HW,2012-12-31 23:50:00,
2013-01-01 02:55:00,63.0,57.7,30.02,North,0,5.1,6.5,83,0.00,,,0.00,WUHU216HW,2012-12-31 23:55:00,
2013-01-01 03:00:00,63.0,57.7,30.02,NW,315,3.4,5.4,83,0.00,,,0.00,WUHU216HW,2013-01-01 00:00:00,
2013-01-01 03:05:00,62.8,57.5,30.03,WNW,293,3.6,5.4,83,0.00,,,0.00,WUHU216HW,2013-01-01 00:05:00,
2013-01-01 03:10:00,62.8,57.5,30.03,WNW,293,2.9,4.3,83,0.00,,,0.00,WUHU216HW,2013-01-01 00:10:00,
2013-01-01 03:15:00,62.8,57.5,30.02,WNW,293,4.5,4.7,83,0.00,,,0.00,WUHU216HW,2013-01-01 00:15:00,
2013-01-01 03:20:00,62.8,57.5,30.02,WNW,293,3.8,4.9,83,0.00,,,0.00,WUHU216HW,2013-01-01 00:20:00,
2013-01-01 03:25:00,62.8,57.5,30.02,West,270,4.3,5.4,83,0.00,,,0.00,WUHU216HW,2013-01-01 00:25:00,
2013-01-01 03:30:00,62.8,57.5,30.02,WNW,293,4.0,5.4,83,0.00,,,0.00,WUHU216HW,2013-01-01 00:30:00,
2013-01-01 03:35:00,62.8,57.5,30.02,WNW,293,4.0,4.9,83,0.00,,,0.00,WUHU216HW,2013-01-01 00:35:00,
2013-01-01 03:40:00,62.6,57.3,30.02,WSW,248,3.4,4.7,83,0.00,,,0.00,WUHU216HW,2013-01-01 00:40:00,
2013-01-01 03:45:00,62.6,57.3,30.02,WNW,293,4.0,4.7,83,0.00,,,0.00,WUHU216HW,2013-01-01 00:45:00,
2013-01-01 03:50:00,62.5,57.3,30.02,WNW,293,4.9,5.4,83,0.00,,,0.00,WUHU216HW,2013-01-01 00:50:00,
2013-01-01 03:55:00,62.5,57.3,30.02,West,270,4.7,5.6,83,0.00,,,0.00,WUHU216HW,2013-01-01 00:55:00,
2013-01-01 04:00:00,62.3,57.1,30.03,WNW,293,4.5,5.6,83,0.00,,,0.00,WUHU216HW,2013-01-01 01:00:00,
2013-01-01 04:05:00,62.3,57.1,30.03,West,270,3.6,5.4,83,0.00,,,0.00,WUHU216HW,2013-01-01 01:05:00,
2013-01-01 04:10:00,62.3,57.1,30.03,West,270,4.0,4.9,83,0.00,,,0.00,WUHU216HW,2013-01-01 01:10:00,
2013-01-01 04:15:00,62.3,57.1,30.03,WNW,293,4.3,4.9,83,0.00,,,0.00,WUHU216HW,2013-01-01 01:15:00,
2013-01-01 04:20:00,62.3,57.1,30.03,West,270,5.6,6.0,83,0.00,,,0.00,WUHU216HW,2013-01-01 01:20:00,
2013-01-01 04:25:00,62.3,57.3,30.03,West,270,6.5,6.5,84,0.00,,,0.00,WUHU216HW,2013-01-01 01:25:00,
2013-01-01 04:30:00,62.3,57.3,30.03,WNW,293,5.6,8.1,84,0.00,,,0.00,WUHU216HW,2013-01-01 01:30:00,
2013-01-01 04:35:00,62.3,57.3,30.03,WNW,293,5.4,8.1,84,0.00,,,0.00,WUHU216HW,2013-01-01 01:35:00,
2013-01-01 04:40:00,62.1,57.3,30.03,West,270,5.1,7.8,84,0.00,,,0.00,WUHU216HW,2013-01-01 01:40:00,
2013-01-01 04:45:00,62.1,57.3,30.03,West,270,4.7,6.3,84,0.00,,,0.00,WUHU216HW,2013-01-01 01:45:00,
2013-01-01 04:50:00,62.1,57.5,30.03,WNW,293,4.5,6.9,85,0.00,,,0.00,WUHU216HW,2013-01-01 01:50:00,
2013-01-01 04:55:00,61.9,57.3,30.04,West,270,6.3,6.9,85,0.00,,,0.00,WUHU216HW,2013-01-01 01:55:00,
2013-01-01 05:00:00,61.9,57.3,30.04,WNW,293,4.0,6.3,85,0.00,,,0.00,WUHU216HW,2013-01-01 02:00:00,
2013-01-01 05:05:00,61.9,57.3,30.04,West,270,4.3,6.5,85,0.00,,,0.00,WUHU216HW,2013-01-01 02:05:00,
2013-01-01 05:10:00,61.9,57.3,30.04,WNW,293,6.0,6.5,85,0.00,,,0.00,WUHU216HW,2013-01-01 02:10:00,
2013-01-01 05:15:00,61.9,57.3,30.04,NW,315,3.4,6.0,85,0.00,,,0.00,WUHU216HW,2013-01-01 02:15:00,
2013-01-01 05:20:00,61.7,57.5,30.04,West,270,2.5,6.0,86,0.00,,,0.00,WUHU216HW,2013-01-01 02:20:00,
2013-01-01 05:25:00,61.7,57.5,30.04,NW,315,1.8,4.5,86,0.00,,,0.00,WUHU216HW,2013-01-01 02:25:00,
2013-01-01 05:30:00,61.7,57.5,30.05,WNW,293,4.0,5.4,86,0.00,,,0.00,WUHU216HW,2013-01-01 02:30:00,
2013-01-01 05:35:00,61.6,57.3,30.05,WNW,293,5.1,5.4,86,0.00,,,0.00,WUHU216HW,2013-01-01 02:35:00,
2013-01-01 05:40:00,61.6,57.3,30.05,North,0,4.5,6.0,86,0.00,,,0.00,WUHU216HW,2013-01-01 02:40:00,
2013-01-01 05:45:00,61.6,57.7,30.05,NW,315,2.9,6.0,87,0.00,,,0.00,WUHU216HW,2013-01-01 02:45:00,
2013-01-01 05:50:00,61.7,57.9,30.05,WNW,293,3.6,5.4,87,0.00,,,0.00,WUHU216HW,2013-01-01 02:50:00,
2013-01-01 05:55:00,61.6,57.7,30.05,West,270,5.6,5.6,87,0.00,,,0.00,WUHU216HW,2013-01-01 02:55:00,
2013-01-01 06:00:00,61.6,57.7,30.05,WNW,293,4.7,6.3,87,0.00,,,0.00,WUHU216HW,2013-01-01 03:00:00,
2013-01-01 06:05:00,61.4,57.5,30.05,WNW,293,3.8,6.3,87,0.00,,,0.00,WUHU216HW,2013-01-01 03:05:00,
2013-01-01 06:10:00,61.6,57.7,30.05,NNW,338,4.7,6.3,87,0.00,,,0.00,WUHU216HW,2013-01-01 03:10:00,
2013-01-01 06:15:00,61.6,57.7,30.05,NW,315,4.3,6.3,87,0.00,,,0.00,WUHU216HW,2013-01-01 03:15:00,
2013-01-01 06:20:00,61.6,57.7,30.05,West,270,6.5,7.2,87,0.00,,,0.00,WUHU216HW,2013-01-01 03:20:00,
2013-01-01 06:25:00,61.6,57.7,30.05,West,270,6.3,7.2,87,0.00,,,0.00,WUHU216HW,2013-01-01 03:25:00,
2013-01-01 06:30:00,61.7,57.9,30.05,West,270,5.6,6.9,87,0.00,,,0.00,WUHU216HW,2013-01-01 03:30:00,
2013-01-01 06:35:00,61.6,57.7,30.05,WNW,293,4.0,6.0,87,0.00,,,0.00,WUHU216HW,2013-01-01 03:35:00,
2013-01-01 06:40:00,61.6,57.7,30.05,WNW,293,5.4,6.0,87,0.00,,,0.00,WUHU216HW,2013-01-01 03:40:00,
2013-01-01 06:45:00,61.6,57.7,30.05,WNW,293,5.6,7.4,87,0.00,,,0.00,WUHU216HW,2013-01-01 03:45:00,
2013-01-01 06:50:00,61.6,57.7,30.05,West,270,5.8,7.4,87,0.00,,,0.00,WUHU216HW,2013-01-01 03:50:00,
2013-01-01 06:55:00,61.6,57.7,30.06,West,270,4.5,6.9,87,0.00,,,0.00,WUHU216HW,2013-01-01 03:55:00,
2013-01-01 07:00:00,61.7,57.9,30.06,WNW,293,6.0,6.9,87,0.00,,,0.00,WUHU216HW,2013-01-01 04:00:00,
2013-01-01 07:05:00,61.7,57.9,30.06,West,270,4.7,6.9,87,0.00,,,0.00,WUHU216HW,2013-01-01 04:05:00,
2013-01-01 07:10:00,61.9,58.1,30.07,WNW,293,3.8,6.7,87,0.00,,,0.00,WUHU216HW,2013-01-01 04:10:00,
2013-01-01 07:15:00,61.9,58.1,30.07,NNW,338,5.6,6.7,87,0.00,,,0.00,WUHU216HW,2013-01-01 04:15:00,
2013-01-01 07:20:00,62.1,58.2,30.07,West,270,4.7,6.7,87,0.00,,,0.00,WUHU216HW,2013-01-01 04:20:00,
2013-01-01 07:25:00,62.3,58.4,30.07,West,270,4.7,6.7,87,0.00,,,0.00,WUHU216HW,2013-01-01 04:25:00,
2013-01-01 07:30:00,62.3,58.4,30.07,West,270,4.3,6.7,87,0.00,,,0.00,WUHU216HW,2013-01-01 04:30:00,
2013-01-01 07:35:00,62.6,58.8,30.07,West,270,4.9,6.7,87,0.00,,,0.00,WUHU216HW,2013-01-01 04:35:00,
2013-01-01 07:40:00,63.0,59.1,30.08,WNW,293,4.9,5.8,87,0.00,,,0.00,WUHU216HW,2013-01-01 04:40:00,
2013-01-01 07:45:00,63.2,59.3,30.08,WNW,293,5.1,5.8,87,0.00,,,0.00,WUHU216HW,2013-01-01 04:45:00,
2013-01-01 07:50:00,63.5,59.3,30.08,WNW,293,6.3,8.3,86,0.00,,,0.00,WUHU216HW,2013-01-01 04:50:00,
2013-01-01 07:55:00,63.9,59.7,30.08,WNW,293,5.8,8.3,86,0.00,,,0.00,WUHU216HW,2013-01-01 04:55:00,
2013-01-01 08:01:00,64.3,59.7,30.08,West,270,7.4,8.3,85,0.00,,,0.00,WUHU216HW,2013-01-01 05:01:00,
2013-01-01 08:02:00,64.4,59.9,30.08,West,270,8.1,8.1,85,0.00,,,0.00,WUHU216HW,2013-01-01 05:02:00,
2013-01-01 08:07:00,64.8,60.2,30.09,WSW,248,5.4,8.1,85,0.00,,,0.00,WUHU216HW,2013-01-01 05:07:00,
2013-01-01 08:12:00,65.2,60.2,30.09,NW,315,5.1,7.2,84,0.00,,,0.00,WUHU216HW,2013-01-01 05:12:00,
2013-01-01 08:17:00,65.5,60.6,30.09,West,270,5.1,8.1,84,0.00,,,0.00,WUHU216HW,2013-01-01 05:17:00,
2013-01-01 08:22:00,65.7,60.4,30.09,NW,315,4.0,8.1,83,0.00,,,0.00,WUHU216HW,2013-01-01 05:22:00,
2013-01-01 08:27:00,65.9,60.2,30.09,NW,315,3.6,7.6,82,0.00,,,0.00,WUHU216HW,2013-01-01 05:27:00,
2013-01-01 08:32:00,66.4,60.5,30.09,WNW,293,3.8,9.4,81,0.00,,,0.00,WUHU216HW,2013-01-01 05:32:00,
2013-01-01 08:37:00,66.6,60.7,30.10,NW,315,3.6,9.4,81,0.00,,,0.00,WUHU216HW,2013-01-01 05:37:00,
2013-01-01 08:42:00,67.1,60.8,30.10,NW,315,6.3,7.8,80,0.00,,,0.00,WUHU216HW,2013-01-01 05:42:00,
2013-01-01 08:47:00,67.5,60.0,30.10,NW,315,6.9,10.3,77,0.00,,,0.00,WUHU216HW,2013-01-01 05:47:00,
2013-01-01 08:52:00,68.0,60.6,30.10,NW,315,6.3,10.3,77,0.00,,,0.00,WUHU216HW,2013-01-01 05:52:00,
2013-01-01 08:57:00,68.4,60.2,30.11,NW,315,6.0,8.5,75,0.00,,,0.00,WUHU216HW,2013-01-01 05:57:00,
2013-01-01 09:02:00,68.9,60.3,30.11,NW,315,5.8,8.5,74,0.00,,,0.00,WUHU216HW,2013-01-01 06:02:00,
2013-01-01 09:07:00,69.1,60.0,30.11,WNW,293,6.0,8.5,73,0.00,,,0.00,WUHU216HW,2013-01-01 06:07:00,
2013-01-01 09:12:00,69.3,59.9,30.11,NW,315,5.6,9.8,72,0.00,,,0.00,WUHU216HW,2013-01-01 06:12:00,
2013-01-01 09:17:00,69.5,60.0,30.11,NW,315,11.4,11.4,72,0.00,,,0.00,WUHU216HW,2013-01-01 06:17:00,
2013-01-01 09:22:00,69.8,59.9,30.10,North,0,11.0,11.9,71,0.00,,,0.00,WUHU216HW,2013-01-01 06:22:00,
2013-01-01 09:27:00,70.0,59.8,30.11,NNW,338,6.9,11.9,70,0.00,,,0.00,WUHU216HW,2013-01-01 06:27:00,
2013-01-01 09:32:00,70.2,59.9,30.11,NNW,338,7.2,12.1,70,0.00,,,0.00,WUHU216HW,2013-01-01 06:32:00,
2013-01-01 09:37:00,70.4,59.7,30.11,WSW,248,6.3,12.3,69,0.00,,,0.00,WUHU216HW,2013-01-01 06:37:00,
2013-01-01 09:42:00,70.6,59.5,30.10,NW,315,7.4,12.3,68,0.00,,,0.00,WUHU216HW,2013-01-01 06:42:00,
2013-01-01 09:47:00,70.9,59.9,30.10,NW,315,6.9,10.5,68,0.00,,,0.00,WUHU216HW,2013-01-01 06:47:00,
2013-01-01 09:52:00,71.1,59.6,30.10,NW,315,7.6,9.8,67,0.00,,,0.00,WUHU216HW,2013-01-01 06:52:00,
2013-01-01 09:57:00,71.1,59.1,30.10,WNW,293,9.6,10.5,66,0.00,,,0.00,WUHU216HW,2013-01-01 06:57:00,
2013-01-01 10:02:00,71.3,59.3,30.10,NW,315,5.4,12.1,66,0.00,,,0.00,WUHU216HW,2013-01-01 07:02:00,
2013-01-01 10:07:00,71.5,59.5,30.10,WNW,293,4.0,12.1,66,0.00,,,0.00,WUHU216HW,2013-01-01 07:07:00,
2013-01-01 10:12:00,71.6,59.7,30.10,NW,315,4.3,9.4,66,0.00,,,0.00,WUHU216HW,2013-01-01 07:12:00,
2013-01-01 10:17:00,72.0,60.0,30.10,North,0,4.5,9.4,66,0.00,,,0.00,WUHU216HW,2013-01-01 07:17:00,
2013-01-01 10:22:00,72.2,59.8,30.10,NW,315,11.2,12.8,65,0.00,,,0.00,WUHU216HW,2013-01-01 07:22:00,
2013-01-01 10:27:00,72.4,60.0,30.09,NW,315,4.7,12.8,65,0.00,,,0.00,WUHU216HW,2013-01-01 07:27:00,
2013-01-01 10:32:00,72.4,60.0,30.09,NW,315,6.9,11.4,65,0.00,,,0.00,WUHU216HW,2013-01-01 07:32:00,
2013-01-01 10:37:00,72.4,60.0,30.09,NNW,338,6.9,9.4,65,0.00,,,0.00,WUHU216HW,2013-01-01 07:37:00,
2013-01-01 10:42:00,72.5,59.7,30.09,NNW,338,7.8,9.8,64,0.00,,,0.00,WUHU216HW,2013-01-01 07:42:00,
2013-01-01 10:47:00,72.7,59.4,30.09,NW,315,11.2,11.2,63,0.00,,,0.00,WUHU216HW,2013-01-01 07:47:00,
2013-01-01 10:52:00,72.9,59.5,30.09,NW,315,8.9,11.6,63,0.00,,,0.00,WUHU216HW,2013-01-01 07:52:00,
2013-01-01 10:57:00,73.3,59.4,30.09,NW,315,10.5,12.8,62,0.00,,,0.00,WUHU216HW,2013-01-01 07:57:00,
2013-01-01 11:02:00,73.4,59.1,30.09,NNW,338,6.7,12.8,61,0.00,,,0.00,WUHU216HW,2013-01-01 08:02:00,
2013-01-01 11:07:00,73.4,58.7,30.08,NW,315,4.3,10.5,60,0.00,,,0.00,WUHU216HW,2013-01-01 08:07:00,
2013-01-01 11:12:00,74.0,58.7,30.08,NNE,23,4.3,9.8,59,0.00,,,0.00,WUHU216HW,2013-01-01 08:12:00,
2013-01-01 11:17:00,74.2,57.9,30.08,North,0,3.8,9.2,57,0.00,,,0.00,WUHU216HW,2013-01-01 08:17:00,
2013-01-01 11:22:00,74.3,57.6,30.08,NE,45,10.1,10.1,56,0.00,,,0.00,WUHU216HW,2013-01-01 08:22:00,
2013-01-01 11:27:00,74.3,57.6,30.07,NNW,338,8.1,11.0,56,0.00,,,0.00,WUHU216HW,2013-01-01 08:27:00,
2013-01-01 11:32:00,74.5,56.3,30.07,NW,315,5.6,11.0,53,0.00,,,0.00,WUHU216HW,2013-01-01 08:32:00,
2013-01-01 11:37:00,74.5,56.7,30.07,WNW,293,6.9,12.5,54,0.00,,,0.00,WUHU216HW,2013-01-01 08:37:00,
2013-01-01 11:42:00,74.9,57.1,30.07,NW,315,11.9,12.5,54,0.00,,,0.00,WUHU216HW,2013-01-01 08:42:00,
2013-01-01 11:47:00,75.1,56.3,30.07,NNW,338,4.7,12.3,52,0.00,,,0.00,WUHU216HW,2013-01-01 08:47:00,
2013-01-01 11:53:00,75.2,56.4,30.07,North,0,4.9,12.3,52,0.00,,,0.00,WUHU216HW,2013-01-01 08:53:00,
2013-01-01 11:58:00,75.6,55.8,30.07,NE,45,11.0,11.6,50,0.00,,,0.00,WUHU216HW,2013-01-01 08:58:00,
2013-01-01 12:03:00,75.4,55.6,30.07,NNE,23,6.3,11.6,50,0.00,,,0.00,WUHU216HW,2013-01-01 09:03:00,
2013-01-01 12:08:00,75.6,53.9,30.06,NW,315,7.4,11.0,47,0.00,,,0.00,WUHU216HW,2013-01-01 09:08:00,
2013-01-01 12:13:00,76.1,54.5,30.06,North,0,4.5,10.5,47,0.00,,,0.00,WUHU216HW,2013-01-01 09:13:00,
2013-01-01 12:18:00,76.3,53.4,30.06,West,270,9.6,9.8,45,0.00,,,0.00,WUHU216HW,2013-01-01 09:18:00,
2013-01-01 12:23:00,76.3,53.4,30.06,WNW,293,6.9,10.3,45,0.00,,,0.00,WUHU216HW,2013-01-01 09:23:00,
2013-01-01 12:28:00,76.5,52.9,30.05,WNW,293,8.7,10.3,44,0.00,,,0.00,WUHU216HW,2013-01-01 09:28:00,
2013-01-01 12:33:00,76.7,54.3,30.05,WNW,293,8.5,8.7,46,0.00,,,0.00,WUHU216HW,2013-01-01 09:33:00,
2013-01-01 12:38:00,76.7,53.1,30.05,NNW,338,5.4,9.2,44,0.00,,,0.00,WUHU216HW,2013-01-01 09:38:00,
2013-01-01 12:43:00,77.0,52.2,30.05,NW,315,11.6,11.6,42,0.00,,,0.00,WUHU216HW,2013-01-01 09:43:00,
2013-01-01 12:48:00,77.2,53.6,30.05,North,0,4.9,11.9,44,0.00,,,0.00,WUHU216HW,2013-01-01 09:48:00,
2013-01-01 12:53:00,77.2,54.2,30.05,NNW,338,6.0,11.9,45,0.00,,,0.00,WUHU216HW,2013-01-01 09:53:00,
2013-01-01 12:58:00,77.2,54.2,30.05,NW,315,4.5,13.4,45,0.00,,,0.00,WUHU216HW,2013-01-01 09:58:00,
2013-01-01 13:03:00,77.4,54.9,30.05,NNE,23,3.1,13.4,46,0.00,,,0.00,WUHU216HW,2013-01-01 10:03:00,
2013-01-01 13:08:00,77.6,55.1,30.05,NNW,338,7.4,8.7,46,0.00,,,0.00,WUHU216HW,2013-01-01 10:08:00,
2013-01-01 13:13:00,77.6,55.1,30.04,NW,315,6.7,9.8,46,0.00,,,0.00,WUHU216HW,2013-01-01 10:13:00,
2013-01-01 13:18:00,77.8,55.3,30.04,NW,315,3.4,9.8,46,0.00,,,0.00,WUHU216HW,2013-01-01 10:18:00,
2013-01-01 13:23:00,77.8,55.3,30.04,North,0,7.4,11.2,46,0.00,,,0.00,WUHU216HW,2013-01-01 10:23:00,
2013-01-01 13:28:00,77.8,54.6,30.04,NNE,23,7.6,11.2,45,0.00,,,0.00,WUHU216HW,2013-01-01 10:28:00,
2013-01-01 13:33:00,77.8,54.0,30.04,NNE,23,5.1,11.4,44,0.00,,,0.00,WUHU216HW,2013-01-01 10:33:00,
2013-01-01 13:38:00,78.1,54.4,30.04,ENE,68,4.3,11.4,44,0.00,,,0.00,WUHU216HW,2013-01-01 10:38:00,
2013-01-01 13:43:00,78.3,53.9,30.04,NW,315,4.7,9.2,43,0.00,,,0.00,WUHU216HW,2013-01-01 10:43:00,
2013-01-01 13:48:00,78.3,52.7,30.04,North,0,6.5,15.0,41,0.00,,,0.00,WUHU216HW,2013-01-01 10:48:00,
2013-01-01 13:53:00,78.3,52.7,30.04,NNE,23,11.4,15.0,41,0.00,,,0.00,WUHU216HW,2013-01-01 10:53:00,
2013-01-01 13:58:00,77.9,53.0,30.04,North,0,6.9,11.6,42,0.00,,,0.00,WUHU216HW,2013-01-01 10:58:00,
2013-01-01 14:03:00,78.1,53.1,30.04,ENE,68,3.4,11.6,42,0.00,,,0.00,WUHU216HW,2013-01-01 11:03:00,
2013-01-01 14:08:00,77.9,52.4,30.04,East,90,1.6,9.8,41,0.00,,,0.00,WUHU216HW,2013-01-01 11:08:00,
2013-01-01 14:13:00,77.9,52.4,30.04,NNE,23,7.8,13.4,41,0.00,,,0.00,WUHU216HW,2013-01-01 11:13:00,
2013-01-01 14:18:00,77.9,51.8,30.04,North,0,6.3,14.3,40,0.00,,,0.00,WUHU216HW,2013-01-01 11:18:00,
2013-01-01 14:23:00,77.6,51.4,30.05,NNW,338,4.9,14.3,40,0.00,,,0.00,WUHU216HW,2013-01-01 11:23:00,
2013-01-01 14:28:00,77.8,50.9,30.05,NNW,338,8.7,13.4,39,0.00,,,0.00,WUHU216HW,2013-01-01 11:28:00,
2013-01-01 14:33:00,77.8,51.6,30.05,NNE,23,8.1,13.4,40,0.00,,,0.00,WUHU216HW,2013-01-01 11:33:00,
2013-01-01 14:38:00,77.9,55.5,30.05,North,0,6.7,11.4,46,0.00,,,0.00,WUHU216HW,2013-01-01 11:38:00,
2013-01-01 14:43:00,77.4,56.2,30.05,North,0,10.7,11.6,48,0.00,,,0.00,WUHU216HW,2013-01-01 11:43:00,
2013-01-01 14:48:00,77.2,55.4,30.05,North,0,5.4,11.6,47,0.00,,,0.00,WUHU216HW,2013-01-01 11:48:00,
2013-01-01 14:53:00,77.0,54.0,30.05,North,0,8.3,12.3,45,0.00,,,0.00,WUHU216HW,2013-01-01 11:53:00,
2013-01-01 14:58:00,77.2,54.2,30.05,North,0,4.9,12.3,45,0.00,,,0.00,WUHU216HW,2013-01-01 11:58:00,
2013-01-01 15:03:00,76.9,54.5,30.05,North,0,13.2,13.2,46,0.00,,,0.00,WUHU216HW,2013-01-01 12:03:00,
2013-01-01 15:08:00,76.7,55.5,30.05,North,0,5.4,13.2,48,0.00,,,0.00,WUHU216HW,2013-01-01 12:08:00,
2013-01-01 15:13:00,76.7,57.2,30.05,NNW,338,7.4,13.2,51,0.00,,,0.00,WUHU216HW,2013-01-01 12:13:00,
2013-01-01 15:18:00,76.5,57.6,30.06,NE,45,8.1,12.5,52,0.00,,,0.00,WUHU216HW,2013-01-01 12:18:00,
2013-01-01 15:23:00,76.5,58.1,30.06,ENE,68,4.7,12.8,53,0.00,,,0.00,WUHU216HW,2013-01-01 12:23:00,
2013-01-01 15:28:00,76.7,55.5,30.06,North,0,7.2,12.8,48,0.00,,,0.00,WUHU216HW,2013-01-01 12:28:00,
2013-01-01 15:33:00,76.9,55.1,30.06,NNW,338,8.5,11.0,47,0.00,,,0.00,WUHU216HW,2013-01-01 12:33:00,
2013-01-01 15:38:00,76.7,55.5,30.06,NNE,23,5.4,11.2,48,0.00,,,0.00,WUHU216HW,2013-01-01 12:38:00,
2013-01-01 15:43:00,76.5,55.4,30.06,North,0,8.9,13.4,48,0.00,,,0.00,WUHU216HW,2013-01-01 12:43:00,
2013-01-01 15:48:00,76.3,56.4,30.06,North,0,5.6,16.3,50,0.00,,,0.00,WUHU216HW,2013-01-01 12:48:00,
2013-01-01 15:53:00,75.8,56.4,30.06,NNW,338,3.1,16.3,51,0.00,,,0.00,WUHU216HW,2013-01-01 12:53:00,
2013-01-01 15:58:00,75.6,57.2,30.06,North,0,6.9,12.1,53,0.00,,,0.00,WUHU216HW,2013-01-01 12:58:00,
2013-01-01 16:03:00,75.4,57.6,30.06,North,0,12.8,12.8,54,0.00,,,0.00,WUHU216HW,2013-01-01 13:03:00,
2013-01-01 16:08:00,75.2,58.0,30.06,NNW,338,12.5,16.3,55,0.00,,,0.00,WUHU216HW,2013-01-01 13:08:00,
2013-01-01 16:13:00,74.9,58.2,30.06,NNE,23,7.6,16.3,56,0.00,,,0.00,WUHU216HW,2013-01-01 13:13:00,
2013-01-01 16:18:00,74.9,58.6,30.06,North,0,4.9,15.7,57,0.00,,,0.00,WUHU216HW,2013-01-01 13:18:00,
2013-01-01 16:23:00,74.9,59.1,30.06,North,0,11.2,12.1,58,0.00,,,0.00,WUHU216HW,2013-01-01 13:23:00,
2013-01-01 16:28:00,74.5,58.8,30.06,NE,45,2.2,12.1,58,0.00,,,0.00,WUHU216HW,2013-01-01 13:28:00,
2013-01-01 16:33:00,74.3,58.6,30.06,NNE,23,4.0,11.0,58,0.00,,,0.00,WUHU216HW,2013-01-01 13:33:00,
2013-01-01 16:38:00,74.2,58.9,30.06,NNE,23,7.8,11.9,59,0.00,,,0.00,WUHU216HW,2013-01-01 13:38:00,
2013-01-01 16:43:00,73.8,59.0,30.07,North,0,8.7,11.9,60,0.00,,,0.00,WUHU216HW,2013-01-01 13:43:00,
2013-01-01 16:48:00,73.4,59.6,30.06,ENE,68,5.4,11.4,62,0.00,,,0.00,WUHU216HW,2013-01-01 13:48:00,
2013-01-01 16:53:00,73.1,59.7,30.07,North,0,5.1,10.3,63,0.00,,,0.00,WUHU216HW,2013-01-01 13:53:00,
2013-01-01 16:58:00,73.1,59.7,30.06,NNW,338,7.6,10.3,63,0.00,,,0.00,WUHU216HW,2013-01-01 13:58:00,
2013-01-01 17:03:00,72.7,59.4,30.06,North,0,5.8,10.1,63,0.00,,,0.00,WUHU216HW,2013-01-01 14:03:00,
2013-01-01 17:08:00,72.7,59.8,30.07,NNE,23,7.6,11.0,64,0.00,,,0.00,WUHU216HW,2013-01-01 14:08:00,
2013-01-01 17:13:00,72.5,59.7,30.07,NNW,338,6.3,11.0,64,0.00,,,0.00,WUHU216HW,2013-01-01 14:13:00,
2013-01-01 17:18:00,72.5,59.7,30.07,NNW,338,5.1,8.9,64,0.00,,,0.00,WUHU216HW,2013-01-01 14:18:00,
2013-01-01 17:23:00,72.5,59.2,30.07,North,0,4.3,8.9,63,0.00,,,0.00,WUHU216HW,2013-01-01 14:23:00,
2013-01-01 17:28:00,72.4,59.5,30.07,NW,315,4.7,9.6,64,0.00,,,0.00,WUHU216HW,2013-01-01 14:28:00,
2013-01-01 17:33:00,72.4,59.5,30.08,North,0,5.4,9.6,64,0.00,,,0.00,WUHU216HW,2013-01-01 14:33:00,
2013-01-01 17:38:00,72.4,59.5,30.07,North,0,5.4,7.4,64,0.00,,,0.00,WUHU216HW,2013-01-01 14:38:00,
2013-01-01 17:43:00,72.2,59.3,30.08,North,0,3.8,8.5,64,0.00,,,0.00,WUHU216HW,2013-01-01 14:43:00,
2013-01-01 17:48:00,72.0,59.1,30.08,NNW,338,4.3,8.5,64,0.00,,,0.00,WUHU216HW,2013-01-01 14:48:00,
2013-01-01 17:53:00,72.0,59.6,30.08,NNW,338,3.4,8.7,65,0.00,,,0.00,WUHU216HW,2013-01-01 14:53:00,
2013-01-01 17:58:00,72.0,59.6,30.08,NNW,338,5.6,8.7,65,0.00,,,0.00,WUHU216HW,2013-01-01 14:58:00,
2013-01-01 18:03:00,71.8,59.4,30.08,NW,315,5.6,6.3,65,0.00,,,0.00,WUHU216HW,2013-01-01 15:03:00,
2013-01-01 18:08:00,71.8,59.4,30.08,NNE,23,4.5,6.5,65,0.00,,,0.00,WUHU216HW,2013-01-01 15:08:00,
2013-01-01 18:13:00,71.6,59.2,30.08,NNW,338,6.0,6.7,65,0.00,,,0.00,WUHU216HW,2013-01-01 15:13:00,
2013-01-01 18:18:00,71.6,58.8,30.09,NNW,338,5.6,6.7,64,0.00,,,0.00,WUHU216HW,2013-01-01 15:18:00,
2013-01-01 18:23:00,71.6,58.8,30.09,NNW,338,3.6,6.7,64,0.00,,,0.00,WUHU216HW,2013-01-01 15:23:00,
2013-01-01 18:28:00,71.6,58.8,30.09,NNW,338,4.7,7.6,64,0.00,,,0.00,WUHU216HW,2013-01-01 15:28:00,
2013-01-01 18:33:00,71.6,58.8,30.09,North,0,5.4,7.6,64,0.00,,,0.00,WUHU216HW,2013-01-01 15:33:00,
2013-01-01 18:38:00,71.6,58.8,30.09,North,0,5.6,6.0,64,0.00,,,0.00,WUHU216HW,2013-01-01 15:38:00,
2013-01-01 18:43:00,71.5,58.6,30.09,NNW,338,6.3,6.9,64,0.00,,,0.00,WUHU216HW,2013-01-01 15:43:00,
2013-01-01 18:48:00,71.5,58.6,30.09,NNE,23,4.5,6.9,64,0.00,,,0.00,WUHU216HW,2013-01-01 15:48:00,
2013-01-01 18:53:00,71.5,58.6,30.09,NNE,23,4.0,6.0,64,0.00,,,0.00,WUHU216HW,2013-01-01 15:53:00,
2013-01-01 18:58:00,71.5,59.0,30.09,NNE,23,2.7,5.4,65,0.00,,,0.00,WUHU216HW,2013-01-01 15:58:00,
2013-01-01 19:03:00,71.3,58.9,30.09,ENE,68,0.2,4.3,65,0.00,,,0.00,WUHU216HW,2013-01-01 16:03:00,
2013-01-01 19:08:00,71.3,58.4,30.09,NW,315,3.4,4.9,64,0.00,,,0.00,WUHU216HW,2013-01-01 16:08:00,
2013-01-01 19:13:00,71.3,58.9,30.09,NW,315,4.0,5.8,65,0.00,,,0.00,WUHU216HW,2013-01-01 16:13:00,
2013-01-01 19:18:00,71.1,58.7,30.09,NE,45,0.7,5.8,65,0.00,,,0.00,WUHU216HW,2013-01-01 16:18:00,
2013-01-01 19:23:00,71.1,58.7,30.09,ENE,68,1.8,4.0,65,0.00,,,0.00,WUHU216HW,2013-01-01 16:23:00,
2013-01-01 19:28:00,71.1,58.7,30.09,North,0,1.1,4.0,65,0.00,,,0.00,WUHU216HW,2013-01-01 16:28:00,
2013-01-01 19:33:00,70.9,58.5,30.09,NNE,23,1.8,4.0,65,0.00,,,0.00,WUHU216HW,2013-01-01 16:33:00,
2013-01-01 19:38:00,70.9,59.0,30.09,ENE,68,4.0,4.7,66,0.00,,,0.00,WUHU216HW,2013-01-01 16:38:00,
2013-01-01 19:43:00,70.9,59.0,30.09,ENE,68,1.3,4.7,66,0.00,,,0.00,WUHU216HW,2013-01-01 16:43:00,
2013-01-01 19:48:00,70.7,58.8,30.09,NNE,23,1.8,3.8,66,0.00,,,0.00,WUHU216HW,2013-01-01 16:48:00,
2013-01-01 19:53:00,70.7,58.8,30.09,NE,45,1.1,4.7,66,0.00,,,0.00,WUHU216HW,2013-01-01 16:53:00,
2013-01-01 19:58:00,70.6,58.6,30.09,North,0,6.3,8.1,66,0.00,,,0.00,WUHU216HW,2013-01-01 16:58:00,
2013-01-01 20:03:00,70.6,58.6,30.09,NNE,23,5.8,8.1,66,0.00,,,0.00,WUHU216HW,2013-01-01 17:03:00,
2013-01-01 20:08:00,70.6,58.6,30.09,NE,45,4.9,7.8,66,0.00,,,0.00,WUHU216HW,2013-01-01 17:08:00,
2013-01-01 20:13:00,70.6,58.6,30.09,North,0,2.5,7.8,66,0.00,,,0.00,WUHU216HW,2013-01-01 17:13:00,
2013-01-01 20:18:00,70.6,58.6,30.09,North,0,1.1,6.9,66,0.00,,,0.00,WUHU216HW,2013-01-01 17:18:00,
2013-01-01 20:23:00,70.4,58.4,30.09,NNE,23,1.6,4.0,66,0.00,,,0.00,WUHU216HW,2013-01-01 17:23:00,
2013-01-01 20:28:00,70.4,59.3,30.09,WSW,248,2.5,4.7,68,0.00,,,0.00,WUHU216HW,2013-01-01 17:28:00,
2013-01-01 20:33:00,70.4,59.3,30.09,NNW,338,2.7,5.6,68,0.00,,,0.00,WUHU216HW,2013-01-01 17:33:00,
2013-01-01 20:38:00,70.4,59.3,30.09,NNW,338,3.8,5.8,68,0.00,,,0.00,WUHU216HW,2013-01-01 17:38:00,
2013-01-01 20:43:00,70.2,59.1,30.09,North,0,4.3,5.8,68,0.00,,,0.00,WUHU216HW,2013-01-01 17:43:00,
2013-01-01 20:48:00,70.2,59.5,30.09,North,0,2.5,4.7,69,0.00,,,0.00,WUHU216HW,2013-01-01 17:48:00,
2013-01-01 20:53:00,70.0,59.8,30.09,North,0,1.8,4.3,70,0.00,,,0.00,WUHU216HW,2013-01-01 17:53:00,
2013-01-01 20:58:00,69.8,59.6,30.09,North,0,2.5,4.9,70,0.00,,,0.00,WUHU216HW,2013-01-01 17:58:00,
2013-01-01 21:03:00,69.8,59.6,30.10,NNW,338,1.8,4.9,70,0.00,,,0.00,WUHU216HW,2013-01-01 18:03:00,
2013-01-01 21:08:00,69.7,60.2,30.09,NNW,338,2.7,3.4,72,0.00,,,0.00,WUHU216HW,2013-01-01 18:08:00,
2013-01-01 21:13:00,69.5,60.0,30.09,NNW,338,2.5,6.0,72,0.00,,,0.00,WUHU216HW,2013-01-01 18:13:00,
2013-01-01 21:18:00,69.5,60.0,30.09,North,0,4.0,6.0,72,0.00,,,0.00,WUHU216HW,2013-01-01 18:18:00,
2013-01-01 21:23:00,69.5,60.0,30.09,North,0,1.8,6.7,72,0.00,,,0.00,WUHU216HW,2013-01-01 18:23:00,
2013-01-01 21:28:00,69.5,60.4,30.09,NNW,338,3.1,6.7,73,0.00,,,0.00,WUHU216HW,2013-01-01 18:28:00,
2013-01-01 21:33:00,69.3,60.2,30.09,North,0,4.7,4.7,73,0.00,,,0.00,WUHU216HW,2013-01-01 18:33:00,
2013-01-01 21:38:00,69.3,60.2,30.09,NNW,338,1.8,4.7,73,0.00,,,0.00,WUHU216HW,2013-01-01 18:38:00,
2013-01-01 21:43:00,69.3,60.2,30.09,NNW,338,1.8,4.7,73,0.00,,,0.00,WUHU216HW,2013-01-01 18:43:00,
2013-01-01 21:48:00,69.1,60.0,30.09,North,0,0.4,4.7,73,0.00,,,0.00,WUHU216HW,2013-01-01 18:48:00,
2013-01-01 21:53:00,69.1,60.0,30.09,North,0,3.1,4.7,73,0.00,,,0.00,WUHU216HW,2013-01-01 18:53:00,
2013-01-01 21:58:00,69.1,60.0,30.09,NNW,338,1.3,4.0,73,0.00,,,0.00,WUHU216HW,2013-01-01 18:58:00,
2013-01-01 22:03:00,68.9,60.0,30.09,North,0,0.7,3.4,73,0.00,,,0.00,WUHU216HW,2013-01-01 19:03:00,
2013-01-01 22:08:00,68.9,60.0,30.09,NNW,338,1.8,3.4,73,0.00,,,0.00,WUHU216HW,2013-01-01 19:08:00,
2013-01-01 22:13:00,68.9,60.0,30.09,North,0,2.2,3.4,73,0.00,,,0.00,WUHU216HW,2013-01-01 19:13:00,
2013-01-01 22:18:00,68.8,59.8,30.08,NNW,338,1.1,2.7,73,0.00,,,0.00,WUHU216HW,2013-01-01 19:18:00,
2013-01-01 22:23:00,68.8,59.8,30.08,North,0,1.1,3.6,73,0.00,,,0.00,WUHU216HW,2013-01-01 19:23:00,
2013-01-01 22:28:00,68.8,59.4,30.09,NNW,338,1.3,3.6,72,0.00,,,0.00,WUHU216HW,2013-01-01 19:28:00,
2013-01-01 22:34:00,68.8,59.4,30.08,NNW,338,2.0,2.5,72,0.00,,,0.00,WUHU216HW,2013-01-01 19:34:00,
2013-01-01 22:39:00,68.8,59.4,30.09,NNW,338,0.7,3.4,72,0.00,,,0.00,WUHU216HW,2013-01-01 19:39:00,
2013-01-01 22:44:00,68.8,59.4,30.09,NW,315,2.0,3.4,72,0.00,,,0.00,WUHU216HW,2013-01-01 19:44:00,
2013-01-01 22:49:00,68.8,59.4,30.09,NNW,338,1.1,2.5,72,0.00,,,0.00,WUHU216HW,2013-01-01 19:49:00,
2013-01-01 22:54:00,68.8,59.4,30.09,North,0,2.5,2.5,72,0.00,,,0.00,WUHU216HW,2013-01-01 19:54:00,
2013-01-01 22:59:00,68.8,59.4,30.08,North,0,0.4,2.5,72,0.00,,,0.00,WUHU216HW,2013-01-01 19:59:00,
2013-01-01 23:04:00,68.8,59.4,30.09,NW,315,0.4,2.5,72,0.00,,,0.00,WUHU216HW,2013-01-01 20:04:00,
2013-01-01 23:09:00,68.8,59.4,30.08,North,0,0.2,1.3,72,0.00,,,0.00,WUHU216HW,2013-01-01 20:09:00,
2013-01-01 23:14:00,68.6,59.2,30.08,North,0,0.4,1.3,72,0.00,,,0.00,WUHU216HW,2013-01-01 20:14:00,
2013-01-01 23:19:00,68.6,58.9,30.08,North,0,0.4,1.1,71,0.00,,,0.00,WUHU216HW,2013-01-01 20:19:00,
2013-01-01 23:24:00,68.4,58.7,30.08,NNW,338,0.0,0.4,71,0.00,,,0.00,WUHU216HW,2013-01-01 20:24:00,
2013-01-01 23:29:00,68.4,58.7,30.08,NNW,338,0.0,0.4,71,0.00,,,0.00,WUHU216HW,2013-01-01 20:29:00,
2013-01-01 23:34:00,68.2,58.5,30.08,NNW,338,0.0,0.2,71,0.00,,,0.00,WUHU216HW,2013-01-01 20:34:00,
2013-01-01 23:39:00,68.2,58.5,30.09,NW,315,0.4,0.4,71,0.00,,,0.00,WUHU216HW,2013-01-01 20:39:00,
2013-01-01 23:44:00,68.2,58.5,30.09,WNW,293,0.0,0.7,71,0.00,,,0.00,WUHU216HW,2013-01-01 20:44:00,
2013-01-01 23:49:00,68.0,58.7,30.09,WNW,293,0.4,0.9,72,0.00,,,0.00,WUHU216HW,2013-01-01 20:49:00,
2013-01-01 23:54:00,68.0,58.7,30.09,WNW,293,0.7,1.1,72,0.00,,,0.00,WUHU216HW,2013-01-01 20:54:00,
2013-01-01 23:59:00,68.0,58.7,30.08,NW,315,0.4,1.1,72,0.00,,,0.00,WUHU216HW,2013-01-01 20:59:00,